createdAt,value
2018-06-19T00:01:58.900Z,13.50
2018-06-19T00:04:27.176Z,13.50
2018-06-19T00:06:55.471Z,13.50
2018-06-19T00:09:23.731Z,13.50
2018-06-19T00:11:52.464Z,13.50
2018-06-19T00:14:21.563Z,13.60
2018-06-19T00:16:50.070Z,13.50
2018-06-19T00:19:18.321Z,13.50
2018-06-19T00:21:49.971Z,13.40
2018-06-19T00:24:18.532Z,13.40
2018-06-19T00:26:46.778Z,13.30
2018-06-19T00:29:15.017Z,13.30
2018-06-19T00:31:43.264Z,13.20
2018-06-19T00:34:11.544Z,13.20
2018-06-19T00:36:39.822Z,13.20
2018-06-19T00:39:10.436Z,13.10
2018-06-19T00:41:38.713Z,13.10
2018-06-19T00:44:07.171Z,13.00
2018-06-19T00:46:37.580Z,13.00
2018-06-19T00:49:06.052Z,13.00
2018-06-19T00:51:34.337Z,13.00
2018-06-19T00:54:02.618Z,13.00
2018-06-19T00:56:42.283Z,12.90
2018-06-19T00:59:10.519Z,12.90
2018-06-19T01:01:39.523Z,12.80
2018-06-19T01:04:07.731Z,12.80
2018-06-19T01:06:36.432Z,12.70
2018-06-19T01:09:06.648Z,12.70
2018-06-19T01:11:34.888Z,12.60
2018-06-19T01:14:03.090Z,12.60
2018-06-19T01:16:31.323Z,12.60
2018-06-19T01:18:59.563Z,12.60
2018-06-19T01:21:27.787Z,12.60
2018-06-19T01:23:56.037Z,12.60
2018-06-19T01:26:24.259Z,12.60
2018-06-19T01:28:52.676Z,12.60
2018-06-19T01:31:20.892Z,12.60
2018-06-19T01:33:49.103Z,12.70
2018-06-19T01:36:17.371Z,12.70
2018-06-19T01:38:45.607Z,12.70
2018-06-19T01:41:13.852Z,12.70
2018-06-19T01:43:42.123Z,12.80
2018-06-19T01:46:10.444Z,12.80
2018-06-19T01:48:38.658Z,12.70
2018-06-19T01:51:06.851Z,12.60
2018-06-19T01:53:35.742Z,12.60
2018-06-19T01:56:03.932Z,12.50
2018-06-19T01:58:32.151Z,12.60
2018-06-19T02:01:00.407Z,12.70
2018-06-19T02:03:28.667Z,12.80
2018-06-19T02:05:56.931Z,12.80
2018-06-19T02:08:25.342Z,12.80
2018-06-19T02:10:54.987Z,12.80
2018-06-19T02:13:23.206Z,12.90
2018-06-19T02:15:51.475Z,12.90
2018-06-19T02:18:19.750Z,12.90
2018-06-19T02:20:48.024Z,12.90
2018-06-19T02:23:16.261Z,12.90
2018-06-19T02:25:44.835Z,12.90
2018-06-19T02:28:13.084Z,12.90
2018-06-19T02:30:41.712Z,12.90
2018-06-19T02:33:09.979Z,12.90
2018-06-19T02:35:38.243Z,12.80
2018-06-19T02:38:06.577Z,12.70
2018-06-19T02:40:35.128Z,12.70
2018-06-19T02:43:03.405Z,12.60
2018-06-19T02:45:32.364Z,12.60
2018-06-19T02:48:00.588Z,12.50
2018-06-19T02:50:28.875Z,12.50
2018-06-19T02:52:57.168Z,12.50
2018-06-19T02:55:25.347Z,12.60
2018-06-19T02:57:53.624Z,12.60
2018-06-19T03:00:21.958Z,12.70
2018-06-19T03:02:50.299Z,12.70
2018-06-19T03:05:18.520Z,12.70
2018-06-19T03:07:46.733Z,12.80
2018-06-19T03:10:15.040Z,12.80
2018-06-19T03:12:43.305Z,12.70
2018-06-19T03:15:11.943Z,12.60
2018-06-19T03:17:40.228Z,12.60
2018-06-19T03:20:08.482Z,12.60
2018-06-19T03:22:36.774Z,12.60
2018-06-19T03:25:05.058Z,12.70
2018-06-19T03:27:33.305Z,12.70
2018-06-19T03:30:01.541Z,12.80
2018-06-19T03:32:29.776Z,12.90
2018-06-19T03:34:58.019Z,13.00
2018-06-19T03:37:26.248Z,13.00
2018-06-19T03:39:54.764Z,13.10
2018-06-19T03:42:23.006Z,13.10
2018-06-19T03:44:51.259Z,13.10
2018-06-19T03:47:19.861Z,13.20
2018-06-19T03:49:48.108Z,13.20
2018-06-19T03:52:16.957Z,13.20
2018-06-19T03:54:45.187Z,13.20
2018-06-19T03:57:13.679Z,13.20
2018-06-19T03:59:41.979Z,13.20
2018-06-19T04:02:10.257Z,13.20
2018-06-19T04:04:38.467Z,13.30
2018-06-19T04:07:06.680Z,13.30
2018-06-19T04:09:34.942Z,13.30
2018-06-19T04:12:03.578Z,13.40
2018-06-19T04:14:31.827Z,13.50
2018-06-19T04:17:01.128Z,13.60
2018-06-19T04:19:29.403Z,13.60
2018-06-19T04:21:57.800Z,13.70
2018-06-19T04:24:26.102Z,13.80
2018-06-19T04:26:54.356Z,14.00
2018-06-19T04:29:22.614Z,14.10
2018-06-19T04:31:50.869Z,14.20
2018-06-19T04:34:19.087Z,14.30
2018-06-19T04:36:49.109Z,14.40
2018-06-19T04:41:45.329Z,14.70
2018-06-19T04:44:13.583Z,15.50
2018-06-19T04:46:41.880Z,17.00
2018-06-19T04:49:10.136Z,18.30
2018-06-19T04:51:38.388Z,19.40
2018-06-19T04:54:06.955Z,20.40
2018-06-19T04:56:35.143Z,21.50
2018-06-19T04:59:03.396Z,22.60
2018-06-19T05:01:31.928Z,23.60
2018-06-19T05:04:00.170Z,24.10
2018-06-19T05:06:28.467Z,24.40
2018-06-19T05:08:56.684Z,24.90
2018-06-19T05:11:24.883Z,25.50
2018-06-19T05:16:21.477Z,26.70
2018-06-19T05:18:49.778Z,27.20
2018-06-19T05:21:19.225Z,27.20
2018-06-19T05:23:47.760Z,27.10
2018-06-19T05:26:16.016Z,27.10
2018-06-19T05:28:45.924Z,27.50
2018-06-19T05:31:18.425Z,26.70
2018-06-19T05:33:47.972Z,27.20
2018-06-19T05:36:16.463Z,27.40
2018-06-19T05:38:45.169Z,28.10
2018-06-19T05:41:13.606Z,27.40
2018-06-19T05:43:42.120Z,27.90
2018-06-19T05:46:10.633Z,28.00
2018-06-19T05:48:39.182Z,28.20
2018-06-19T05:51:07.899Z,28.60
2018-06-19T05:53:36.296Z,28.40
2018-06-19T05:56:04.923Z,27.20
2018-06-19T05:58:33.176Z,27.40
2018-06-19T06:01:01.391Z,28.00
2018-06-19T06:03:29.792Z,28.10
2018-06-19T06:05:58.386Z,28.30
2018-06-19T06:08:26.621Z,28.20
2018-06-19T06:10:54.902Z,28.70
2018-06-19T06:13:23.161Z,28.20
2018-06-19T06:15:51.399Z,28.10
2018-06-19T06:18:19.686Z,28.50
2018-06-19T06:20:47.899Z,28.50
2018-06-19T06:23:16.154Z,28.30
2018-06-19T06:25:44.343Z,27.40
2018-06-19T06:28:12.648Z,27.20
2018-06-19T06:30:40.955Z,27.10
2018-06-19T06:33:09.480Z,27.70
2018-06-19T06:35:37.689Z,28.00
2018-06-19T06:38:05.901Z,27.80
2018-06-19T06:40:34.131Z,27.90
2018-06-19T06:43:02.707Z,28.40
2018-06-19T06:45:31.008Z,28.10
2018-06-19T06:47:59.287Z,27.50
2018-06-19T06:50:27.656Z,27.60
2018-06-19T06:52:55.825Z,27.80
2018-06-19T06:55:24.016Z,27.90
2018-06-19T06:57:52.792Z,26.60
2018-06-19T07:00:21.019Z,26.10
2018-06-19T07:02:49.409Z,26.80
2018-06-19T07:05:19.752Z,27.20
2018-06-19T07:07:48.128Z,27.80
2018-06-19T07:10:16.366Z,27.90
2018-06-19T07:12:44.756Z,27.50
2018-06-19T07:18:03.517Z,27.10
2018-06-19T07:20:33.386Z,28.20
2018-06-19T07:23:01.636Z,29.30
2018-06-19T07:25:30.041Z,30.10
2018-06-19T07:27:58.275Z,30.30
2018-06-19T07:30:26.539Z,29.50
2018-06-19T07:32:54.839Z,29.30
2018-06-19T07:35:23.450Z,28.80
2018-06-19T07:37:51.923Z,28.50
2018-06-19T07:40:20.210Z,28.70
2018-06-19T07:42:49.152Z,28.50
2018-06-19T07:45:17.610Z,29.30
2018-06-19T07:47:46.553Z,29.60
2018-06-19T07:50:14.847Z,28.80
2018-06-19T07:52:43.115Z,28.70
2018-06-19T07:55:11.700Z,29.30
2018-06-19T07:57:39.943Z,29.50
2018-06-19T08:00:08.210Z,29.90
2018-06-19T08:02:36.712Z,29.50
2018-06-19T08:05:05.060Z,28.90
2018-06-19T08:07:33.306Z,29.70
2018-06-19T08:10:01.982Z,29.20
2018-06-19T08:12:30.238Z,29.40
2018-06-19T08:14:58.747Z,29.20
2018-06-19T08:17:27.006Z,29.50
2018-06-19T08:19:55.483Z,28.30
2018-06-19T08:22:23.763Z,27.20
2018-06-19T08:24:51.987Z,25.80
2018-06-19T08:27:20.355Z,25.70
2018-06-19T08:29:51.582Z,25.90
2018-06-19T08:32:19.828Z,26.50
2018-06-19T08:34:49.257Z,27.10
2018-06-19T08:37:17.591Z,27.90
2018-06-19T08:39:45.801Z,27.70
2018-06-19T08:42:14.013Z,26.40
2018-06-19T08:44:42.337Z,26.10
2018-06-19T08:47:10.980Z,27.30
2018-06-19T08:49:39.288Z,28.50
2018-06-19T08:52:07.563Z,28.80
2018-06-19T08:54:35.833Z,28.80
2018-06-19T08:57:04.106Z,28.70
2018-06-19T08:59:32.358Z,28.40
2018-06-19T09:02:00.599Z,27.50
2018-06-19T09:04:28.890Z,26.80
2018-06-19T09:06:57.228Z,26.40
2018-06-19T09:09:25.440Z,26.40
2018-06-19T09:11:53.703Z,26.50
2018-06-19T09:14:21.999Z,26.70
2018-06-19T09:16:50.455Z,26.50
2018-06-19T09:19:18.720Z,26.50
2018-06-19T09:21:46.993Z,26.50
2018-06-19T09:24:15.331Z,25.70
2018-06-19T09:26:43.527Z,25.30
2018-06-19T09:29:11.740Z,25.30
2018-06-19T09:31:40.072Z,25.50
2018-06-19T09:34:08.275Z,25.10
2018-06-19T09:36:36.616Z,24.60
2018-06-19T09:39:07.883Z,24.00
2018-06-19T09:41:37.036Z,23.30
2018-06-19T09:44:05.667Z,23.00
2018-06-19T09:46:34.004Z,22.60
2018-06-19T09:49:02.279Z,22.50
2018-06-19T09:51:31.037Z,22.40
2018-06-19T09:53:59.451Z,22.20
2018-06-19T09:56:27.570Z,22.20
2018-06-19T09:58:55.906Z,22.30
2018-06-19T10:01:24.156Z,22.50
2018-06-19T10:03:52.385Z,22.50
2018-06-19T10:06:20.722Z,22.70
2018-06-19T10:08:49.065Z,23.00
2018-06-19T10:11:17.314Z,23.30
2018-06-19T10:13:45.535Z,23.70
2018-06-19T10:16:13.804Z,24.30
2018-06-19T10:18:42.407Z,24.60
2018-06-19T10:21:10.678Z,24.70
2018-06-19T10:23:38.937Z,24.50
2018-06-19T10:26:07.202Z,24.40
2018-06-19T10:28:35.805Z,24.30
2018-06-19T10:31:04.048Z,24.10
2018-06-19T10:33:32.264Z,23.90
2018-06-19T10:36:00.497Z,23.90
2018-06-19T10:38:28.749Z,23.80
2018-06-19T10:40:56.964Z,23.90
2018-06-19T10:43:25.164Z,24.10
2018-06-19T10:45:53.710Z,24.50
2018-06-19T10:48:21.923Z,24.80
2018-06-19T10:50:50.130Z,25.50
2018-06-19T10:53:18.390Z,25.90
2018-06-19T10:55:46.623Z,25.70
2018-06-19T10:58:14.836Z,25.80
2018-06-19T11:00:43.158Z,25.90
2018-06-19T11:03:11.407Z,25.90
2018-06-19T11:05:39.692Z,26.00
2018-06-19T11:08:08.010Z,25.90
2018-06-19T11:10:36.163Z,26.00
2018-06-19T11:13:05.404Z,25.80
2018-06-19T11:15:33.731Z,26.10
2018-06-19T11:18:01.954Z,26.30
2018-06-19T11:20:30.207Z,26.60
2018-06-19T11:22:58.439Z,27.10
2018-06-19T11:27:54.727Z,28.70
2018-06-19T11:30:23.021Z,29.50
2018-06-19T11:35:19.780Z,31.20
2018-06-19T11:37:48.178Z,31.40
2018-06-19T11:40:16.419Z,31.30
2018-06-19T11:42:44.880Z,31.10
2018-06-19T11:45:13.132Z,31.40
2018-06-19T11:47:41.380Z,31.60
2018-06-19T11:50:09.677Z,31.30
2018-06-19T11:52:37.940Z,31.00
2018-06-19T11:55:06.677Z,30.90
2018-06-19T11:57:35.176Z,31.40
2018-06-19T12:00:03.745Z,31.60
2018-06-19T12:02:31.959Z,31.50
2018-06-19T12:07:34.657Z,30.00
2018-06-19T12:10:02.947Z,30.20
2018-06-19T12:14:59.256Z,30.60
2018-06-19T12:17:27.528Z,30.30
2018-06-19T12:19:55.817Z,30.20
2018-06-19T12:22:24.203Z,30.00
2018-06-19T12:24:52.499Z,29.60
2018-06-19T12:27:20.759Z,29.40
2018-06-19T12:29:49.923Z,29.20
2018-06-19T12:32:18.787Z,29.30
2018-06-19T12:34:47.785Z,29.70
2018-06-19T12:37:16.265Z,29.90
2018-06-19T12:39:44.467Z,30.40
2018-06-19T12:42:12.695Z,30.30
2018-06-19T12:44:40.940Z,30.10
2018-06-19T12:47:09.761Z,30.30
2018-06-19T12:49:49.395Z,30.10
2018-06-19T12:52:28.958Z,30.40
2018-06-19T12:55:20.810Z,30.30
2018-06-19T12:57:49.592Z,30.20
2018-06-19T13:00:17.891Z,29.60
2018-06-19T13:02:59.809Z,29.30
2018-06-19T13:05:39.593Z,29.10
2018-06-19T13:08:07.847Z,29.50
2018-06-19T13:10:36.188Z,30.20
2018-06-19T13:13:26.478Z,31.10
2018-06-19T13:15:55.400Z,31.70
2018-06-19T13:18:37.560Z,31.90
2018-06-19T13:21:05.783Z,31.50
2018-06-19T13:23:34.071Z,31.30
2018-06-19T13:26:02.520Z,31.50
2018-06-19T13:28:42.063Z,31.10
2018-06-19T13:31:22.496Z,30.70
2018-06-19T13:33:50.851Z,30.90
2018-06-19T13:36:19.622Z,30.70
2018-06-19T13:38:47.847Z,30.00
2018-06-19T13:41:28.388Z,29.30
2018-06-19T13:44:10.409Z,28.50
2018-06-19T13:46:38.865Z,28.30
2018-06-19T13:49:07.264Z,28.10
2018-06-19T13:51:35.612Z,27.40
2018-06-19T13:54:03.993Z,27.50
2018-06-19T13:57:46.875Z,27.40
2018-06-19T14:00:20.079Z,27.10
2018-06-19T14:02:48.348Z,27.20
2018-06-19T14:05:17.944Z,27.20
2018-06-19T14:08:03.331Z,27.10
2018-06-19T14:11:45.709Z,27.10
2018-06-19T14:14:14.547Z,27.00
2018-06-19T14:16:42.846Z,26.50
2018-06-19T14:19:12.290Z,26.60
2018-06-19T14:21:40.748Z,26.70
2018-06-19T14:24:09.387Z,27.00
2018-06-19T14:26:37.627Z,27.30
2018-06-19T14:29:08.300Z,27.50
2018-06-19T14:34:04.778Z,27.50
2018-06-19T14:36:33.096Z,27.30
2018-06-19T14:39:01.351Z,26.90
2018-06-19T14:41:29.588Z,27.20
2018-06-19T14:43:58.188Z,27.90
2018-06-19T14:46:26.934Z,28.60
2018-06-19T14:48:55.183Z,28.80
2018-06-19T14:51:23.438Z,28.90
2018-06-19T14:53:51.784Z,29.10
2018-06-19T14:56:20.100Z,29.50
2018-06-19T14:58:48.375Z,30.30
2018-06-19T15:01:16.649Z,32.00
2018-06-19T15:03:45.655Z,31.80
2018-06-19T15:06:13.894Z,31.30
2018-06-19T15:08:43.092Z,31.30
2018-06-19T15:11:11.399Z,30.90
2018-06-19T15:13:39.672Z,30.60
2018-06-19T15:16:07.931Z,30.10
2018-06-19T15:18:36.184Z,29.30
2018-06-19T15:23:39.083Z,30.80
2018-06-19T15:26:07.299Z,31.80
2018-06-19T15:28:35.544Z,31.90
2018-06-19T15:31:04.011Z,30.50
2018-06-19T15:33:32.368Z,30.70
2018-06-19T15:36:00.575Z,32.10
2018-06-19T15:38:30.827Z,33.80
2018-06-19T15:40:59.399Z,34.80
2018-06-19T15:43:31.012Z,34.60
2018-06-19T15:45:59.271Z,35.40
2018-06-19T15:48:27.545Z,35.80
2018-06-19T15:50:55.806Z,36.70
2018-06-19T15:53:25.056Z,37.00
2018-06-19T15:55:53.413Z,37.10
2018-06-19T15:58:21.680Z,36.10
2018-06-19T16:00:49.929Z,34.60
2018-06-19T16:03:18.896Z,34.00
2018-06-19T16:05:47.236Z,32.90
2018-06-19T16:08:15.609Z,31.70
2018-06-19T16:10:45.468Z,30.50
2018-06-19T16:13:13.736Z,29.40
2018-06-19T16:15:42.079Z,28.80
2018-06-19T16:18:10.444Z,28.70
2018-06-19T16:20:38.646Z,29.00
2018-06-19T16:23:07.080Z,28.80
2018-06-19T16:25:35.352Z,28.50
2018-06-19T16:28:03.575Z,28.00
2018-06-19T16:30:31.835Z,27.70
2018-06-19T16:33:00.154Z,27.70
2018-06-19T16:35:28.895Z,27.60
2018-06-19T16:37:57.229Z,27.40
2018-06-19T16:40:25.906Z,27.40
2018-06-19T16:42:54.246Z,27.20
2018-06-19T16:45:23.135Z,27.40
2018-06-19T16:47:51.761Z,27.90
2018-06-19T16:50:21.875Z,28.10
2018-06-19T16:52:50.163Z,28.10
2018-06-19T16:55:18.403Z,28.00
2018-06-19T16:57:47.077Z,27.80
2018-06-19T17:00:15.359Z,27.30
2018-06-19T17:02:43.603Z,27.10
2018-06-19T17:05:11.853Z,26.90
2018-06-19T17:07:42.006Z,26.80
2018-06-19T17:10:11.157Z,26.60
2018-06-19T17:12:39.433Z,26.40
2018-06-19T17:15:07.676Z,26.30
2018-06-19T17:17:37.205Z,26.10
2018-06-19T17:20:05.493Z,25.90
2018-06-19T17:22:33.787Z,25.70
2018-06-19T17:25:02.068Z,25.60
2018-06-19T17:27:30.320Z,25.50
2018-06-19T17:29:58.598Z,25.50
2018-06-19T17:32:26.939Z,25.40
2018-06-19T17:34:55.450Z,25.30
2018-06-19T17:37:23.883Z,25.40
2018-06-19T17:39:52.196Z,25.40
2018-06-19T17:42:20.407Z,25.50
2018-06-19T17:44:48.722Z,25.70
2018-06-19T17:47:17.477Z,25.70
2018-06-19T17:49:45.720Z,25.70
2018-06-19T17:52:14.180Z,25.60
2018-06-19T17:54:42.451Z,25.40
2018-06-19T17:57:10.748Z,25.20
2018-06-19T17:59:39.400Z,25.00
2018-06-19T18:02:08.305Z,24.80
2018-06-19T18:04:37.710Z,24.50
2018-06-19T18:07:06.092Z,24.30
2018-06-19T18:09:34.318Z,24.10
2018-06-19T18:12:02.551Z,23.90
2018-06-19T18:14:30.747Z,23.60
2018-06-19T18:16:58.988Z,23.50
2018-06-19T18:19:28.104Z,23.40
2018-06-19T18:21:56.669Z,23.40
2018-06-19T18:24:24.930Z,23.30
2018-06-19T18:26:53.228Z,23.20
2018-06-19T18:29:21.475Z,23.10
2018-06-19T18:31:49.764Z,23.00
2018-06-19T18:34:17.978Z,22.90
2018-06-19T18:36:46.223Z,22.90
2018-06-19T18:39:14.421Z,22.80
2018-06-19T18:41:42.678Z,22.80
2018-06-19T18:44:11.389Z,22.70
2018-06-19T18:46:39.688Z,22.70
2018-06-19T18:49:07.869Z,22.60
2018-06-19T18:51:37.635Z,22.60
2018-06-19T18:54:05.936Z,22.50
2018-06-19T18:56:34.136Z,22.50
2018-06-19T18:59:02.506Z,22.50
2018-06-19T19:01:30.775Z,22.50
2018-06-19T19:03:58.990Z,22.50
2018-06-19T19:06:27.258Z,22.40
2018-06-19T19:08:55.649Z,22.50
2018-06-19T19:11:23.926Z,22.40
2018-06-19T19:13:52.385Z,22.40
2018-06-19T19:16:26.083Z,22.40
2018-06-19T19:18:59.697Z,22.30
2018-06-19T19:21:28.005Z,22.30
2018-06-19T19:23:56.502Z,22.20
2018-06-19T19:26:30.079Z,22.20
2018-06-19T19:29:03.693Z,22.10
2018-06-19T19:31:32.699Z,22.10
2018-06-19T19:34:00.977Z,22.00
2018-06-19T19:36:34.706Z,22.00
2018-06-19T19:39:08.272Z,21.90
2018-06-19T19:41:37.147Z,21.80
2018-06-19T19:44:05.443Z,21.70
2018-06-19T19:46:39.016Z,21.60
2018-06-19T19:49:08.009Z,21.50
2018-06-19T19:51:36.347Z,21.40
2018-06-19T19:54:04.681Z,21.30
2018-06-19T19:56:38.176Z,21.20
2018-06-19T19:59:06.455Z,21.20
2018-06-19T20:01:34.687Z,21.20
2018-06-19T20:04:02.969Z,21.00
2018-06-19T20:06:32.269Z,21.00
2018-06-19T20:09:00.504Z,20.80
2018-06-19T20:11:28.715Z,20.70
2018-06-19T20:13:56.987Z,20.50
2018-06-19T20:16:25.288Z,20.40
2018-06-19T20:18:53.555Z,20.30
2018-06-19T20:21:22.223Z,20.30
2018-06-19T20:23:50.577Z,20.20
2018-06-19T20:26:19.204Z,20.20
2018-06-19T20:28:47.750Z,20.20
2018-06-19T20:31:16.197Z,20.10
2018-06-19T20:33:44.739Z,20.00
2018-06-19T20:36:13.057Z,19.90
2018-06-19T20:38:41.334Z,19.90
2018-06-19T20:41:09.878Z,19.90
2018-06-19T20:43:38.135Z,19.90
2018-06-19T20:46:06.456Z,19.80
2018-06-19T20:48:35.100Z,19.80
2018-06-19T20:51:03.575Z,19.80
2018-06-19T20:55:59.986Z,19.60
2018-06-19T20:58:28.233Z,19.50
2018-06-19T21:00:56.559Z,19.40
2018-06-19T21:03:24.870Z,19.30
2018-06-19T21:05:53.531Z,19.20
2018-06-19T21:08:26.557Z,19.00
2018-06-19T21:10:55.773Z,19.00
2018-06-19T21:13:25.943Z,18.90
2018-06-19T21:18:22.300Z,18.70
2018-06-19T21:20:50.830Z,18.60
2018-06-19T21:23:19.105Z,18.50
2018-06-19T21:25:47.800Z,18.40
2018-06-19T21:28:16.080Z,18.30
2018-06-19T21:30:44.643Z,18.20
2018-06-19T21:33:12.967Z,18.10
2018-06-19T21:35:41.235Z,18.10
2018-06-19T21:38:09.803Z,18.00
2018-06-19T21:40:38.052Z,17.90
2018-06-19T21:43:06.308Z,17.90
2018-06-19T21:45:34.886Z,17.80
2018-06-19T21:48:03.262Z,17.70
2018-06-19T21:50:31.771Z,17.70
2018-06-19T21:53:00.223Z,17.70
2018-06-19T21:55:28.688Z,17.70
2018-06-19T21:57:56.999Z,17.70
2018-06-19T22:00:25.269Z,17.70
2018-06-19T22:02:53.525Z,17.60
2018-06-19T22:05:21.814Z,17.60
2018-06-19T22:07:50.080Z,17.60
2018-06-19T22:10:18.391Z,17.60
2018-06-19T22:12:46.941Z,17.70
2018-06-19T22:15:15.191Z,17.70
2018-06-19T22:17:43.448Z,17.80
2018-06-19T22:20:11.708Z,17.90
2018-06-19T22:22:39.996Z,17.90
2018-06-19T22:25:08.212Z,18.00
2018-06-19T22:27:36.483Z,18.10
2018-06-19T22:30:05.187Z,18.10
2018-06-19T22:32:33.447Z,18.10
2018-06-19T22:35:01.660Z,18.20
2018-06-19T22:37:29.886Z,18.20
2018-06-19T22:39:58.149Z,18.20
2018-06-19T22:42:26.430Z,18.20
2018-06-19T22:44:54.695Z,18.20
2018-06-19T22:47:22.980Z,18.20
2018-06-19T22:49:51.181Z,18.10
2018-06-19T22:52:19.378Z,18.10
2018-06-19T22:54:47.675Z,18.10
2018-06-19T22:57:15.923Z,18.10
2018-06-19T22:59:44.155Z,18.10
2018-06-19T23:02:12.445Z,18.00
2018-06-19T23:04:40.702Z,18.00
2018-06-19T23:07:08.981Z,18.00
2018-06-19T23:09:37.286Z,18.00
2018-06-19T23:14:33.594Z,18.00
2018-06-19T23:17:01.840Z,17.90
2018-06-19T23:19:30.093Z,17.80
2018-06-19T23:21:58.403Z,17.80
2018-06-19T23:24:27.623Z,17.60
2018-06-19T23:26:55.920Z,17.60
2018-06-19T23:29:24.247Z,17.40
2018-06-19T23:31:52.532Z,17.30
2018-06-19T23:34:20.780Z,17.20
2018-06-19T23:36:49.032Z,17.10
2018-06-19T23:39:17.259Z,17.00
2018-06-19T23:41:45.925Z,16.90
2018-06-19T23:44:14.175Z,16.70
2018-06-19T23:46:42.378Z,16.60
2018-06-19T23:49:10.623Z,16.50
2018-06-19T23:51:39.921Z,16.40
2018-06-19T23:54:08.185Z,16.30
2018-06-19T23:56:36.845Z,16.20
2018-06-19T23:59:05.293Z,16.10
